Terminal Aerodrome Forecast
Issued by NWS

Home | Current Version | Previous Version | Text Only | Print | Product List | Glossary Off
Versions: 1 2 3 4 5 6 7 8 9 10 11 12 13 14 15 16

000
FTUS43 KGRB 260855 AAA
TAFCWA
TAF AMD
KCWA 260855Z 2609/2706 31004KT P6SM OVC015
     FM261400 32007KT P6SM SCT028
      TEMPO 2614/2617 BKN028
     FM262000 33006KT P6SM SCT040
     FM270100 VRB03KT P6SM SKC
      AMD LTD TO CLD VIS AND WIND TIL 261100=

USA.gov is the U.S. government's official web portal to all federal, state and local government web resources and services.